Dauphin Barker Airport
CYDN : rendu visible

Aérodrome :











RETROUVEZ-NOUS SUR...

 
LOGIN :

S'inscrire | Disclaimer

   EN    FR    IT 

 









Légende :    VFR   VFR Marginal   IFR   IFR Intensif   IFR Très Intensif
Visi : 
Plafond : 
>= 8 km
>= 3000ft
5 à 8 km
1000 à 3000 ft
1500m à 5 km
500 à 1000 ft
800 à 1500m
200 à 500 ft
< 800m
< 200 ft
Symboles :   Orages  Brouillard  Fortes neiges  Fortes précipitations  Vent > 20 kt






- Altitude de l'aérodrome : 999 ft
- Code IATA : YDN


CYDN - Dauphin Barker

DERNIER METAR :
  • 190305Z AUTO 31008KT 5SM -SN OVC050 M17/M20 A3039 RMK SLP325

METARs EXPIRÉS :
  • 190233Z AUTO 32009KT 6SM -SN OVC040 M18/M21 A3039 RMK SLP325
  • 190204Z AUTO 33010G15KT 5SM -SN OVC042 M18/M21 A3037 RMK SLP320
  • 190143Z AUTO 34008G15KT 6SM -SN FEW024 OVC036 M17/M21 A3037 RMK SLP318
  • 190116Z AUTO 34011KT 5SM -SN OVC038 M17/M20 A3034 RMK SLP310
  • 190101Z AUTO 34012KT 6SM -SN OVC038 M17/M20 A3033 RMK SLP307

TAF TAF CYDN
Valide du 19 à 00h jusqu'au 19 à 12h UTC


182338Z 1900/1912 34012KT 6SM -SN SCT020 OVC040
TEMPO 1900/1910 21/2SM -SN OVC020
FM191000 31008KT P6SM -SN BKN030 OVC080
TEMPO 1910/1912 4SM -SN RMK FCST BASED ON AUTO OBS. NXT FCST BY 190600Z



MET'MAP, la Météo Aéronautique d'un coup d'oeil ! - Copyright ORBIFLY Décembre 2007 - Disclaimer

ORBIFLY MET'MAP TEAM :

Programmation & Développement : Alexandra Zaïnal
Sur une idée originale de : Baudouin d'Aumeries
Assistance à la programmation : Marc-Olivier Méhu
Soutien technique & logistique : Manuel Goepfert

Contact : metmap@orbifly.com




SOURCES & CREDITS :

   NOAA       Earth
Advisory